Time;durP1;ratioP1;P1;durP2;ratioP2;P2;SDS_P1;SDS_P2;PMS_P1;PMS_P2;Temp;Humidity;BMP_temperature;BMP_pressure;BME280_temperature;BME280_humidity;BME280_pressure;Samples;Min_cycle;Max_cycle;Signal;HPM_P1;HPM_P2
2023/04/22 00:01:31;;;;;;;10.63;7.03;;;7.70;99.90;;;;;;5074427;28;20403;-56
2023/04/22 00:03:57;;;;;;;14.18;6.30;;;7.60;99.90;;;;;;5073958;28;20032;-57
2023/04/22 00:06:23;;;;;;;15.77;5.82;;;7.60;99.90;;;;;;5073808;28;20024;-56
2023/04/22 00:08:49;;;;;;;15.27;7.32;;;7.60;99.90;;;;;;5073860;28;20027;-56
2023/04/22 00:11:14;;;;;;;10.55;6.85;;;7.60;99.90;;;;;;5073554;28;20104;-50
2023/04/22 00:13:40;;;;;;;14.93;6.60;;;7.60;99.90;;;;;;5072685;28;20031;-57
2023/04/22 00:16:06;;;;;;;26.27;6.88;;;7.60;99.90;;;;;;5074100;28;20040;-57
2023/04/22 00:18:34;;;;;;;11.73;7.05;;;7.50;99.90;;;;;;5073507;28;20056;-56
2023/04/22 00:21:00;;;;;;;10.07;6.50;;;7.50;99.90;;;;;;5073936;28;20021;-58
2023/04/22 00:23:26;;;;;;;16.25;6.60;;;7.40;99.90;;;;;;5073831;28;20024;-57
2023/04/22 00:25:52;;;;;;;11.35;7.07;;;7.30;99.90;;;;;;5073563;28;20024;-57
2023/04/22 00:28:17;;;;;;;14.07;6.88;;;7.20;99.90;;;;;;5073690;28;20040;-57
2023/04/22 00:30:43;;;;;;;8.43;6.32;;;7.10;99.90;;;;;;5073269;28;20029;-57
2023/04/22 00:33:09;;;;;;;16.45;6.82;;;7.00;99.90;;;;;;5073384;28;20027;-56
2023/04/22 00:35:34;;;;;;;18.55;6.80;;;6.90;99.90;;;;;;5073568;28;20027;-57
2023/04/22 00:38:00;;;;;;;11.00;7.03;;;6.80;99.90;;;;;;5073539;28;20445;-57
2023/04/22 00:40:25;;;;;;;15.40;7.03;;;6.70;99.90;;;;;;5072907;28;20021;-55
2023/04/22 00:42:52;;;;;;;12.00;7.72;;;6.70;99.90;;;;;;5073003;28;20030;-57
2023/04/22 00:45:18;;;;;;;10.93;6.72;;;6.70;99.90;;;;;;5073129;28;20024;-58
2023/04/22 00:47:47;;;;;;;9.80;6.93;;;6.70;99.90;;;;;;5073154;28;20104;-55
2023/04/22 00:50:14;;;;;;;15.55;6.65;;;6.60;99.90;;;;;;5073126;28;20369;-57
2023/04/22 00:52:40;;;;;;;7.00;5.78;;;6.60;99.90;;;;;;5073081;28;20605;-57
2023/04/22 00:55:06;;;;;;;12.07;6.28;;;6.50;99.90;;;;;;5073232;28;20024;-57
2023/04/22 00:57:34;;;;;;;9.02;6.50;;;6.50;99.90;;;;;;5073067;28;20021;-54
2023/04/22 01:00:00;;;;;;;7.38;6.50;;;6.40;99.90;;;;;;5073218;28;20107;-57
2023/04/22 01:02:26;;;;;;;15.23;6.43;;;6.30;99.90;;;;;;5072889;28;20111;-57
2023/04/22 01:04:55;;;;;;;10.20;5.95;;;6.10;99.90;;;;;;5071106;28;20043;-57
2023/04/22 01:07:22;;;;;;;10.98;6.68;;;6.10;99.90;;;;;;5072676;28;20029;-57
2023/04/22 01:09:48;;;;;;;6.90;6.20;;;6.00;99.90;;;;;;5071427;28;20017;-56
2023/04/22 01:12:14;;;;;;;14.93;6.63;;;6.00;99.90;;;;;;5073001;28;20357;-57
2023/04/22 01:14:40;;;;;;;11.45;6.93;;;6.00;99.90;;;;;;5073031;28;20083;-56
2023/04/22 01:17:06;;;;;;;12.02;7.22;;;6.00;99.90;;;;;;5072720;28;20035;-56
2023/04/22 01:19:32;;;;;;;11.88;6.78;;;6.00;99.90;;;;;;5072435;28;20031;-55
2023/04/22 01:22:00;;;;;;;12.73;6.82;;;6.00;99.90;;;;;;5072390;28;20032;-57
2023/04/22 01:24:26;;;;;;;10.60;7.20;;;6.00;99.90;;;;;;5072022;28;20178;-57
2023/04/22 01:26:52;;;;;;;12.45;7.45;;;6.00;99.90;;;;;;5071450;28;20012;-55
2023/04/22 01:29:18;;;;;;;10.80;7.00;;;6.00;99.90;;;;;;5071994;28;20073;-57
2023/04/22 01:31:45;;;;;;;10.55;6.50;;;5.90;99.90;;;;;;5072349;28;20413;-56
2023/04/22 01:34:11;;;;;;;11.65;7.07;;;5.90;99.90;;;;;;5072092;28;20663;-57
2023/04/22 01:36:37;;;;;;;11.07;7.13;;;5.90;99.90;;;;;;5072060;28;20589;-55
2023/04/22 01:39:17;;;;;;;15.02;7.07;;;5.90;99.90;;;;;;5072182;28;20029;-57
2023/04/22 01:41:43;;;;;;;9.25;6.80;;;5.80;99.90;;;;;;5071618;28;20016;-57
2023/04/22 01:44:09;;;;;;;9.18;6.97;;;5.80;99.90;;;;;;5070449;28;20360;-57
2023/04/22 01:46:35;;;;;;;9.52;7.03;;;5.80;99.90;;;;;;5071465;28;20036;-57
2023/04/22 01:49:00;;;;;;;9.60;6.97;;;5.70;99.90;;;;;;5069386;28;20107;-57
2023/04/22 01:51:26;;;;;;;14.60;8.05;;;5.70;99.90;;;;;;5069971;28;20017;-55
2023/04/22 01:53:52;;;;;;;17.63;7.70;;;5.70;99.90;;;;;;5072064;28;20368;-55
2023/04/22 01:56:18;;;;;;;9.82;7.38;;;5.70;99.90;;;;;;5071878;28;20027;-56
2023/04/22 01:58:43;;;;;;;16.73;7.55;;;5.60;99.90;;;;;;5071847;28;20024;-55
2023/04/22 02:01:10;;;;;;;10.20;7.05;;;5.60;99.90;;;;;;5070315;28;20036;-57
2023/04/22 02:03:36;;;;;;;8.10;6.38;;;5.50;99.90;;;;;;5070601;28;20029;-57
2023/04/22 02:06:01;;;;;;;11.07;8.10;;;5.30;99.90;;;;;;5071966;28;20027;-54
2023/04/22 02:08:27;;;;;;;10.85;6.07;;;5.20;99.90;;;;;;5071783;28;20159;-54
2023/04/22 02:10:53;;;;;;;25.27;7.40;;;5.10;99.90;;;;;;5071837;28;20472;-56
2023/04/22 02:13:19;;;;;;;12.23;7.43;;;5.10;99.90;;;;;;5071718;28;20055;-57
2023/04/22 02:15:44;;;;;;;9.98;6.70;;;5.10;99.90;;;;;;5071978;28;20267;-54
2023/04/22 02:18:10;;;;;;;13.57;8.20;;;5.10;99.90;;;;;;5071388;28;20028;-55
2023/04/22 02:20:36;;;;;;;13.60;9.30;;;5.10;99.90;;;;;;5071965;28;20448;-56
2023/04/22 02:23:02;;;;;;;13.43;7.32;;;5.00;99.90;;;;;;5071744;28;20056;-57
2023/04/22 02:25:28;;;;;;;14.02;7.03;;;4.90;99.90;;;;;;5071525;28;20025;-53
2023/04/22 02:27:54;;;;;;;12.02;7.55;;;4.80;99.90;;;;;;5071583;28;20463;-57
2023/04/22 02:30:20;;;;;;;11.10;7.45;;;4.70;99.90;;;;;;5071481;28;20116;-56
2023/04/22 02:32:46;;;;;;;10.48;7.10;;;4.80;99.90;;;;;;5071596;28;20504;-56
2023/04/22 02:35:12;;;;;;;13.13;7.95;;;5.00;99.90;;;;;;5070023;28;20029;-55
2023/04/22 02:37:38;;;;;;;9.85;7.22;;;5.00;99.90;;;;;;5071288;28;20047;-57
2023/04/22 02:40:04;;;;;;;12.38;7.35;;;5.00;99.90;;;;;;5070388;28;20036;-57
2023/04/22 02:42:30;;;;;;;8.80;6.80;;;5.00;99.90;;;;;;5069973;28;20028;-55
2023/04/22 02:44:55;;;;;;;11.43;7.38;;;4.80;99.90;;;;;;5069858;28;20020;-57
2023/04/22 02:47:22;;;;;;;10.02;6.20;;;4.70;99.90;;;;;;5069640;28;20516;-58
2023/04/22 02:49:48;;;;;;;10.80;6.75;;;4.70;99.90;;;;;;5070683;28;20035;-52
2023/04/22 02:52:14;;;;;;;12.48;6.68;;;4.60;99.90;;;;;;5071059;28;20016;-49
2023/04/22 02:54:40;;;;;;;7.50;6.13;;;4.60;99.90;;;;;;5071997;28;20028;-53
2023/04/22 02:57:05;;;;;;;8.38;6.75;;;4.40;99.90;;;;;;5074554;28;20028;-51
2023/04/22 02:59:31;;;;;;;10.90;6.55;;;4.40;99.90;;;;;;5073295;28;20169;-51
2023/04/22 03:01:57;;;;;;;15.27;7.20;;;4.30;99.90;;;;;;5074750;28;20388;-52
2023/04/22 03:04:24;;;;;;;9.27;6.70;;;4.30;99.90;;;;;;5075324;28;20459;-56
2023/04/22 03:06:50;;;;;;;8.50;7.07;;;4.30;99.90;;;;;;5074956;28;20059;-55
2023/04/22 03:09:16;;;;;;;12.88;6.82;;;4.20;99.90;;;;;;5075260;28;20088;-54
2023/04/22 03:11:42;;;;;;;11.15;6.90;;;4.10;99.90;;;;;;5074000;28;20078;-54
2023/04/22 03:14:07;;;;;;;12.55;7.53;;;4.10;99.90;;;;;;5075248;28;20033;-54
2023/04/22 03:16:33;;;;;;;10.60;8.02;;;4.10;99.90;;;;;;5075118;28;20032;-56
2023/04/22 03:18:59;;;;;;;10.02;6.80;;;4.10;99.90;;;;;;5075184;28;20028;-49
2023/04/22 03:21:25;;;;;;;8.02;6.22;;;4.10;99.90;;;;;;5073750;28;20078;-55
2023/04/22 03:23:51;;;;;;;6.85;6.15;;;4.00;99.90;;;;;;5073766;28;20028;-56
2023/04/22 03:26:16;;;;;;;9.45;7.25;;;4.10;99.90;;;;;;5074602;28;20035;-53
2023/04/22 03:28:42;;;;;;;11.05;7.28;;;4.10;99.90;;;;;;5074851;28;20402;-54
2023/04/22 03:31:08;;;;;;;13.63;6.65;;;4.10;99.90;;;;;;5074254;28;20022;-54
2023/04/22 03:33:33;;;;;;;10.20;7.50;;;4.10;99.90;;;;;;5073146;28;20020;-52
2023/04/22 03:35:59;;;;;;;14.45;6.75;;;4.10;99.90;;;;;;5074217;28;20082;-57
2023/04/22 03:38:24;;;;;;;9.15;6.53;;;4.10;99.90;;;;;;5074465;28;20028;-56
2023/04/22 03:40:50;;;;;;;16.17;6.60;;;4.10;99.90;;;;;;5074413;28;20013;-54
2023/04/22 03:43:16;;;;;;;8.77;6.47;;;4.10;99.90;;;;;;5074150;28;20375;-54
2023/04/22 03:45:41;;;;;;;7.55;6.32;;;4.00;99.90;;;;;;5074277;28;20498;-52
2023/04/22 03:48:07;;;;;;;13.45;6.60;;;4.00;99.90;;;;;;5074447;28;20021;-54
2023/04/22 03:50:33;;;;;;;11.60;6.88;;;4.00;99.90;;;;;;5074323;28;20056;-49
2023/04/22 03:52:58;;;;;;;12.70;6.07;;;3.90;99.90;;;;;;5074210;28;20029;-53
2023/04/22 03:55:27;;;;;;;7.90;6.60;;;3.90;99.90;;;;;;5073885;28;20082;-53
2023/04/22 03:57:53;;;;;;;8.82;6.47;;;3.80;99.90;;;;;;5074456;28;20031;-54
2023/04/22 04:00:18;;;;;;;11.32;6.10;;;3.80;99.90;;;;;;5073940;28;20477;-52
2023/04/22 04:02:44;;;;;;;14.35;5.88;;;3.80;99.90;;;;;;5074464;28;20407;-53
2023/04/22 04:05:10;;;;;;;7.70;6.78;;;3.80;99.90;;;;;;5073629;28;20017;-57
2023/04/22 04:07:36;;;;;;;9.07;7.25;;;3.80;99.90;;;;;;5074506;28;20024;-54
2023/04/22 04:10:03;;;;;;;11.73;6.22;;;3.80;99.90;;;;;;5074247;28;20025;-52
2023/04/22 04:12:29;;;;;;;9.45;6.03;;;3.80;99.90;;;;;;5073980;28;20029;-52
2023/04/22 04:14:54;;;;;;;10.43;7.00;;;3.80;99.90;;;;;;5074250;28;20035;-53
2023/04/22 04:17:24;;;;;;;13.95;7.35;;;3.80;99.90;;;;;;5073898;28;20048;-52
2023/04/22 04:19:52;;;;;;;10.10;6.00;;;3.80;99.90;;;;;;5074052;28;20056;-52
2023/04/22 04:22:18;;;;;;;7.18;6.47;;;3.80;99.90;;;;;;5073832;28;20028;-52
2023/04/22 04:24:44;;;;;;;9.50;6.80;;;3.80;99.90;;;;;;5073913;28;20017;-53
2023/04/22 04:27:10;;;;;;;10.00;7.25;;;3.80;99.90;;;;;;5072762;28;20031;-52
2023/04/22 04:29:36;;;;;;;11.48;7.20;;;3.90;99.90;;;;;;5073831;28;20483;-56
2023/04/22 04:32:03;;;;;;;10.13;6.82;;;3.90;99.90;;;;;;5073837;28;20047;-55
2023/04/22 04:34:30;;;;;;;12.02;6.68;;;3.90;99.90;;;;;;5073829;28;20044;-54
2023/04/22 04:36:56;;;;;;;12.70;6.50;;;4.00;99.90;;;;;;5073499;28;20046;-52
2023/04/22 04:39:22;;;;;;;13.50;6.90;;;4.10;99.90;;;;;;5073475;28;20028;-53
2023/04/22 04:41:48;;;;;;;10.25;6.45;;;4.20;99.90;;;;;;5072113;28;20027;-51
2023/04/22 04:44:14;;;;;;;8.82;6.60;;;4.30;99.90;;;;;;5072983;28;20024;-55
2023/04/22 04:46:40;;;;;;;7.70;6.43;;;4.30;99.90;;;;;;5073276;28;20025;-54
2023/04/22 04:49:08;;;;;;;10.52;6.50;;;4.30;99.90;;;;;;5073338;28;20492;-52
2023/04/22 04:51:34;;;;;;;8.57;6.38;;;4.40;99.90;;;;;;5073165;28;20059;-51
2023/04/22 04:54:00;;;;;;;8.45;6.97;;;4.40;99.90;;;;;;5073348;28;20029;-54
2023/04/22 04:56:25;;;;;;;13.20;7.22;;;4.50;99.90;;;;;;5073009;28;20020;-51
2023/04/22 04:58:51;;;;;;;40.25;21.95;;;4.60;99.90;;;;;;5072930;28;20080;-57
2023/04/22 05:01:16;;;;;;;51.75;26.73;;;4.70;99.90;;;;;;5071804;28;20731;-57
2023/04/22 05:03:42;;;;;;;21.30;13.00;;;4.80;99.90;;;;;;5073380;28;20094;-56
2023/04/22 05:06:09;;;;;;;9.38;6.65;;;5.00;99.90;;;;;;5073175;28;20456;-56
2023/04/22 05:08:35;;;;;;;8.98;6.80;;;5.10;99.90;;;;;;5073114;28;20025;-56
2023/04/22 05:11:00;;;;;;;15.27;7.72;;;5.20;99.90;;;;;;5073231;28;20023;-55
2023/04/22 05:13:27;;;;;;;13.75;8.30;;;5.20;99.90;;;;;;5072610;28;20032;-56
2023/04/22 05:15:52;;;;;;;17.52;8.77;;;5.20;99.90;;;;;;5072997;28;20086;-56
2023/04/22 05:18:18;;;;;;;29.45;17.33;;;5.30;99.90;;;;;;5072132;28;20024;-56
2023/04/22 05:20:43;;;;;;;60.80;38.30;;;5.40;99.90;;;;;;5072855;28;20024;-58
2023/04/22 05:23:09;;;;;;;63.97;37.25;;;5.60;99.90;;;;;;5072659;28;20043;-55
2023/04/22 05:25:35;;;;;;;52.42;28.45;;;5.70;99.90;;;;;;5072720;28;20024;-56
2023/04/22 05:28:00;;;;;;;42.80;29.08;;;5.80;99.90;;;;;;5071918;28;20077;-57
2023/04/22 05:30:26;;;;;;;64.32;44.05;;;5.90;99.90;;;;;;5072286;28;20028;-57
2023/04/22 05:32:52;;;;;;;32.05;20.02;;;5.90;99.90;;;;;;5072429;28;20585;-54
2023/04/22 05:35:17;;;;;;;17.38;12.43;;;6.00;99.90;;;;;;5072155;28;20353;-57
2023/04/22 05:37:43;;;;;;;11.88;9.35;;;6.00;99.90;;;;;;5072017;28;20021;-57
2023/04/22 05:40:09;;;;;;;11.55;7.75;;;6.00;99.90;;;;;;5072035;28;20367;-55
2023/04/22 05:42:34;;;;;;;9.55;8.10;;;6.20;99.90;;;;;;5072079;28;20024;-57
2023/04/22 05:45:00;;;;;;;19.13;7.53;;;6.30;99.90;;;;;;5071913;28;20032;-54
2023/04/22 05:47:26;;;;;;;11.02;7.10;;;6.40;99.90;;;;;;5072015;28;20513;-56
2023/04/22 05:49:52;;;;;;;11.05;7.38;;;6.50;99.90;;;;;;5072155;28;20052;-57
2023/04/22 05:52:18;;;;;;;7.97;6.65;;;6.60;99.90;;;;;;5071841;28;20105;-57
2023/04/22 05:54:43;;;;;;;11.43;6.88;;;6.60;99.90;;;;;;5071995;28;20383;-57
2023/04/22 05:57:09;;;;;;;13.70;7.78;;;6.70;99.90;;;;;;5071605;28;20029;-55
2023/04/22 05:59:35;;;;;;;11.50;6.93;;;6.80;99.90;;;;;;5071819;28;20044;-56
2023/04/22 06:02:01;;;;;;;11.30;7.60;;;6.80;99.90;;;;;;5071676;28;20030;-54
2023/04/22 06:04:27;;;;;;;11.68;7.93;;;6.90;99.90;;;;;;5071123;28;20052;-57
2023/04/22 06:06:53;;;;;;;9.93;7.30;;;6.90;99.90;;;;;;5071542;28;20100;-57
2023/04/22 06:09:20;;;;;;;13.93;7.60;;;7.10;99.90;;;;;;5069171;28;20020;-53
2023/04/22 06:11:45;;;;;;;12.98;6.80;;;7.20;99.90;;;;;;5071124;28;20120;-56
2023/04/22 06:14:12;;;;;;;12.10;8.93;;;7.20;99.90;;;;;;5070778;28;20551;-57
2023/04/22 06:16:38;;;;;;;18.20;8.90;;;7.20;99.90;;;;;;5071741;28;20028;-57
2023/04/22 06:19:04;;;;;;;12.38;7.70;;;7.30;99.90;;;;;;5071815;28;20021;-58
2023/04/22 06:21:32;;;;;;;16.27;10.70;;;7.50;99.90;;;;;;5070491;28;20024;-58
2023/04/22 06:24:01;;;;;;;18.40;10.82;;;7.60;99.90;;;;;;5071504;28;20578;-54
2023/04/22 06:26:27;;;;;;;12.95;8.50;;;7.80;99.90;;;;;;5070308;28;20020;-58
2023/04/22 06:28:52;;;;;;;11.45;7.45;;;8.10;99.90;;;;;;5070950;28;20017;-58
2023/04/22 06:31:18;;;;;;;10.10;6.88;;;8.20;99.90;;;;;;5071296;28;20016;-56
2023/04/22 06:33:45;;;;;;;13.00;7.70;;;8.30;99.90;;;;;;5071197;28;20016;-58
2023/04/22 06:36:11;;;;;;;17.42;8.57;;;8.40;99.90;;;;;;5070601;28;20016;-58
2023/04/22 06:38:37;;;;;;;17.83;8.73;;;8.50;99.90;;;;;;5070358;28;20545;-59
2023/04/22 06:41:03;;;;;;;8.30;7.15;;;8.60;99.90;;;;;;5069826;28;20157;-57
2023/04/22 06:43:28;;;;;;;14.48;8.45;;;8.80;99.90;;;;;;5070625;28;20035;-59
2023/04/22 06:45:54;;;;;;;13.68;9.18;;;9.00;99.90;;;;;;5076531;28;20047;-59
2023/04/22 06:48:20;;;;;;;21.25;10.20;;;9.20;99.90;;;;;;5091454;28;20024;-59
2023/04/22 06:50:45;;;;;;;16.13;10.00;;;9.40;99.90;;;;;;5078671;28;20039;-58
2023/04/22 06:53:11;;;;;;;12.63;9.57;;;9.70;99.90;;;;;;5070974;28;20020;-56
2023/04/22 06:55:37;;;;;;;10.43;8.15;;;9.90;99.90;;;;;;5068522;28;20020;-54
2023/04/22 06:58:02;;;;;;;11.70;8.35;;;10.20;99.90;;;;;;5071079;28;20464;-59
2023/04/22 07:00:28;;;;;;;13.55;8.25;;;10.40;99.90;;;;;;5077966;28;20041;-58
2023/04/22 07:02:54;;;;;;;10.32;7.57;;;10.50;99.90;;;;;;5070929;28;20032;-61
2023/04/22 07:05:19;;;;;;;12.88;6.72;;;10.70;99.90;;;;;;5070911;28;20074;-55
2023/04/22 07:07:46;;;;;;;8.45;6.05;;;10.80;99.90;;;;;;5070228;28;20059;-56
2023/04/22 07:10:13;;;;;;;14.50;5.93;;;11.00;99.90;;;;;;5071382;28;20062;-57
2023/04/22 07:12:39;;;;;;;11.95;5.07;;;11.30;99.90;;;;;;5070645;28;20391;-57
2023/04/22 07:15:05;;;;;;;14.10;5.95;;;11.40;99.90;;;;;;5070827;28;20031;-56
2023/04/22 07:17:31;;;;;;;14.32;6.85;;;11.60;99.90;;;;;;5070756;28;20036;-55
2023/04/22 07:19:57;;;;;;;10.02;6.03;;;11.80;99.90;;;;;;5070885;28;20464;-54
2023/04/22 07:22:22;;;;;;;8.00;5.80;;;11.90;99.90;;;;;;5070268;28;20028;-56
2023/04/22 07:24:48;;;;;;;9.63;5.60;;;12.10;99.90;;;;;;5070094;28;20472;-58
2023/04/22 07:27:14;;;;;;;7.50;6.25;;;12.30;99.90;;;;;;5068315;28;20515;-58
2023/04/22 07:29:40;;;;;;;8.13;5.60;;;12.50;99.90;;;;;;5068766;28;20021;-57
2023/04/22 07:32:05;;;;;;;8.73;4.78;;;12.50;99.90;;;;;;5069682;28;20021;-54
2023/04/22 07:34:31;;;;;;;6.13;4.30;;;12.60;99.90;;;;;;5069264;28;20107;-54
2023/04/22 07:36:57;;;;;;;7.90;4.28;;;12.70;99.90;;;;;;5069415;28;20043;-55
2023/04/22 07:39:22;;;;;;;9.98;5.25;;;12.70;99.90;;;;;;5070139;28;20039;-57
2023/04/22 07:41:48;;;;;;;10.88;5.43;;;12.70;99.90;;;;;;5073491;28;20016;-57
2023/04/22 07:44:17;;;;;;;8.07;5.53;;;12.80;99.90;;;;;;5074375;28;20055;-56
2023/04/22 07:46:43;;;;;;;8.55;5.60;;;12.90;99.90;;;;;;5074463;28;20052;-57
2023/04/22 07:49:08;;;;;;;17.08;5.57;;;13.10;99.90;;;;;;5073158;28;20075;-56
2023/04/22 07:51:34;;;;;;;13.57;5.35;;;13.20;99.90;;;;;;5074129;28;20021;-55
2023/04/22 07:54:00;;;;;;;5.50;4.57;;;13.30;99.90;;;;;;5074189;28;20036;-58
2023/04/22 07:56:25;;;;;;;14.60;9.52;;;13.50;99.90;;;;;;5073067;28;20375;-54
2023/04/22 07:58:51;;;;;;;14.35;7.68;;;13.60;99.90;;;;;;5074323;28;20552;-58
2023/04/22 08:01:17;;;;;;;13.98;7.40;;;13.70;99.90;;;;;;5074328;28;20032;-57
2023/04/22 08:03:42;;;;;;;7.70;5.88;;;13.70;99.90;;;;;;5074086;28;20037;-58
2023/04/22 08:06:08;;;;;;;20.45;6.20;;;13.80;99.90;;;;;;5074146;28;20023;-58
2023/04/22 08:08:34;;;;;;;9.35;4.90;;;13.90;99.60;;;;;;5074174;28;20040;-57
2023/04/22 08:10:59;;;;;;;11.30;5.47;;;14.20;99.90;;;;;;5073923;28;20031;-56
2023/04/22 08:13:25;;;;;;;7.78;5.03;;;14.20;99.70;;;;;;5073684;28;20486;-57
2023/04/22 08:15:51;;;;;;;10.02;6.10;;;14.30;99.90;;;;;;5074078;28;20031;-56
2023/04/22 08:18:16;;;;;;;8.95;5.70;;;14.40;99.70;;;;;;5073761;28;20051;-55
2023/04/22 08:20:42;;;;;;;10.13;5.90;;;14.60;99.90;;;;;;5073245;28;20032;-57
2023/04/22 08:23:08;;;;;;;58.60;36.55;;;14.80;99.70;;;;;;5073891;28;20054;-57
2023/04/22 08:25:34;;;;;;;19.02;10.27;;;14.80;99.00;;;;;;5073520;28;20082;-59
2023/04/22 08:28:00;;;;;;;10.13;5.57;;;15.00;99.20;;;;;;5073741;28;20024;-59
2023/04/22 08:30:25;;;;;;;13.05;7.18;;;15.00;98.80;;;;;;5073908;28;20021;-58
2023/04/22 08:32:52;;;;;;;8.38;4.50;;;15.20;98.50;;;;;;5073099;28;20040;-58
2023/04/22 08:35:21;;;;;;;7.35;5.22;;;15.40;98.70;;;;;;5071349;28;20028;-59
2023/04/22 08:37:46;;;;;;;7.18;6.30;;;15.40;97.70;;;;;;5073225;28;20024;-58
2023/04/22 08:40:12;;;;;;;6.97;4.90;;;15.50;97.30;;;;;;5073230;28;20654;-58
2023/04/22 08:42:39;;;;;;;6.88;6.18;;;15.30;97.30;;;;;;5071781;28;20020;-58
2023/04/22 08:45:05;;;;;;;10.18;6.07;;;15.50;97.00;;;;;;5071010;28;20029;-58
2023/04/22 08:47:34;;;;;;;12.48;7.65;;;15.60;95.90;;;;;;5071918;28;20020;-58
2023/04/22 08:50:02;;;;;;;11.32;5.00;;;15.70;95.30;;;;;;5071876;28;20099;-59
2023/04/22 08:52:29;;;;;;;7.50;4.30;;;16.00;95.70;;;;;;5070847;28;20379;-58
2023/04/22 08:54:55;;;;;;;5.63;5.13;;;16.10;93.80;;;;;;5072304;28;20028;-58
2023/04/22 08:57:22;;;;;;;7.07;3.97;;;16.40;91.50;;;;;;5072707;28;20375;-59
2023/04/22 08:59:49;;;;;;;5.82;4.53;;;16.20;91.90;;;;;;5073054;28;20044;-59
2023/04/22 09:02:22;;;;;;;10.95;4.57;;;16.30;93.70;;;;;;5072689;28;20029;-59
2023/04/22 09:04:50;;;;;;;6.97;4.85;;;16.40;91.40;;;;;;5073226;28;20025;-58
2023/04/22 09:07:24;;;;;;;10.55;5.97;;;16.70;91.90;;;;;;5073031;28;20025;-59
2023/04/22 09:09:50;;;;;;;6.65;5.40;;;16.90;91.70;;;;;;5073014;28;20031;-58
2023/04/22 09:12:18;;;;;;;14.32;5.90;;;16.80;91.90;;;;;;5071627;28;20040;-58
2023/04/22 09:14:44;;;;;;;9.32;5.53;;;17.10;93.70;;;;;;5068102;28;20017;-61
2023/04/22 09:17:10;;;;;;;11.05;5.30;;;17.30;93.50;;;;;;5055821;28;20494;-61
2023/04/22 09:19:36;;;;;;;8.27;4.88;;;17.50;92.00;;;;;;5070658;28;20514;-60
2023/04/22 09:22:02;;;;;;;4.70;4.20;;;17.80;91.90;;;;;;5092681;28;20491;-61
2023/04/22 09:24:28;;;;;;;7.72;5.32;;;17.90;92.10;;;;;;5072881;28;20028;-60
2023/04/22 09:26:56;;;;;;;5.10;4.47;;;17.80;91.50;;;;;;5072601;28;20574;-60
2023/04/22 09:29:28;;;;;;;9.73;5.28;;;18.00;91.50;;;;;;5063335;28;20151;-62
2023/04/22 09:31:54;;;;;;;10.85;4.90;;;18.30;92.50;;;;;;5067178;28;20013;-60
2023/04/22 09:34:20;;;;;;;6.13;4.63;;;18.40;90.70;;;;;;5071943;28;20024;-61
2023/04/22 09:36:50;;;;;;;5.65;4.50;;;18.50;90.50;;;;;;5071515;28;20026;-61
2023/04/22 09:39:16;;;;;;;8.27;5.18;;;18.10;85.90;;;;;;5071816;28;20432;-66
2023/04/22 09:41:42;;;;;;;5.70;4.30;;;18.30;85.40;;;;;;5071154;28;20025;-60
2023/04/22 09:44:15;;;;;;;7.50;4.68;;;18.50;86.70;;;;;;5071437;28;20422;-61
2023/04/22 09:46:43;;;;;;;7.93;4.73;;;18.50;86.10;;;;;;5076732;28;20356;-59
2023/04/22 09:49:09;;;;;;;9.45;5.00;;;18.70;87.50;;;;;;5091572;28;20024;-61
2023/04/22 09:51:40;;;;;;;10.52;5.07;;;18.50;83.00;;;;;;5089377;28;20046;-61
2023/04/22 09:54:10;;;;;;;8.02;4.95;;;18.70;84.70;;;;;;5090753;28;20062;-61
2023/04/22 09:56:47;;;;;;;15.68;4.65;;;18.90;85.20;;;;;;5090258;28;20020;-60
2023/04/22 09:59:14;;;;;;;7.50;4.90;;;19.30;87.90;;;;;;5091887;28;20050;-59
2023/04/22 10:01:41;;;;;;;17.80;5.25;;;19.40;85.90;;;;;;5077902;28;20494;-60
2023/04/22 10:04:08;;;;;;;8.75;4.28;;;19.50;85.20;;;;;;5070293;28;20612;-61
2023/04/22 10:06:34;;;;;;;6.55;5.07;;;19.90;85.90;;;;;;5069563;28;20021;-62
2023/04/22 10:09:01;;;;;;;5.22;3.85;;;19.90;84.00;;;;;;5074831;28;20096;-60
2023/04/22 10:11:27;;;;;;;5.85;4.00;;;20.00;80.60;;;;;;5083249;28;20103;-61
2023/04/22 10:13:53;;;;;;;8.20;4.68;;;20.10;79.30;;;;;;5070660;28;20107;-60
2023/04/22 10:16:21;;;;;;;13.27;4.28;;;20.30;78.30;;;;;;5071098;28;20111;-61
2023/04/22 10:18:48;;;;;;;5.15;3.80;;;20.50;78.30;;;;;;5071656;28;20103;-61
2023/04/22 10:21:13;;;;;;;9.05;4.45;;;20.80;79.90;;;;;;5070435;28;20376;-61
2023/04/22 10:23:45;;;;;;;9.60;4.15;;;21.10;77.20;;;;;;5071373;28;20036;-60
2023/04/22 10:26:11;;;;;;;4.55;3.70;;;21.00;79.40;;;;;;5070933;28;20044;-61
2023/04/22 10:28:42;;;;;;;5.72;3.90;;;21.10;75.00;;;;;;5071602;28;20452;-61
2023/04/22 10:31:20;;;;;;;9.15;4.45;;;21.30;74.50;;;;;;5062278;28;20035;-60
2023/04/22 10:33:46;;;;;;;7.38;4.72;;;21.70;77.10;;;;;;5039994;28;20032;-59
2023/04/22 10:36:17;;;;;;;4.10;3.40;;;21.60;75.40;;;;;;5040037;28;20392;-59
2023/04/22 10:38:51;;;;;;;6.25;3.67;;;21.70;73.30;;;;;;5040424;28;20033;-60
2023/04/22 10:41:25;;;;;;;7.25;4.00;;;21.80;73.20;;;;;;5041694;28;20071;-60
2023/04/22 10:43:57;;;;;;;8.30;3.92;;;21.90;72.50;;;;;;5040563;28;20040;-60
2023/04/22 10:46:33;;;;;;;6.20;4.38;;;22.10;71.00;;;;;;5041222;28;20075;-60
2023/04/22 10:49:05;;;;;;;6.07;3.60;;;22.00;71.90;;;;;;5038138;28;20056;-60
2023/04/22 10:51:41;;;;;;;5.05;4.38;;;22.20;70.40;;;;;;5041429;28;21839;-60
2023/04/22 10:54:07;;;;;;;10.85;3.95;;;21.80;67.90;;;;;;5037441;28;20036;-59
2023/04/22 10:56:33;;;;;;;8.52;4.00;;;21.90;69.50;;;;;;5038294;28;20036;-59
2023/04/22 10:58:58;;;;;;;4.25;3.85;;;21.70;67.10;;;;;;5041470;28;20025;-60
2023/04/22 11:01:27;;;;;;;7.18;4.00;;;21.60;69.10;;;;;;5038515;28;20037;-60
2023/04/22 11:03:53;;;;;;;3.78;3.30;;;21.50;66.80;;;;;;5060627;28;20031;-60
2023/04/22 11:06:21;;;;;;;5.50;4.18;;;21.80;66.40;;;;;;5040433;28;20028;-59
2023/04/22 11:08:48;;;;;;;5.88;3.92;;;21.90;67.20;;;;;;5040377;28;20017;-59
2023/04/22 11:11:17;;;;;;;5.53;3.50;;;21.60;66.20;;;;;;5039553;28;20037;-60
2023/04/22 11:13:43;;;;;;;4.03;2.88;;;21.90;68.40;;;;;;5040337;28;20028;-60
2023/04/22 11:16:09;;;;;;;108.45;8.98;;;22.20;69.40;;;;;;5043113;28;20033;-60
2023/04/22 11:18:34;;;;;;;3.97;3.20;;;22.20;63.30;;;;;;5049928;28;20161;-59
2023/04/22 11:21:07;;;;;;;4.20;3.05;;;21.80;63.20;;;;;;5044437;28;20032;-59
2023/04/22 11:23:33;;;;;;;6.28;3.35;;;21.90;64.90;;;;;;5052312;28;20041;-60
2023/04/22 11:26:02;;;;;;;5.45;3.10;;;22.30;65.60;;;;;;5042997;28;20334;-60
2023/04/22 11:28:28;;;;;;;10.48;3.72;;;22.50;61.50;;;;;;5043926;28;20014;-59
2023/04/22 11:31:04;;;;;;;8.70;3.40;;;22.90;62.20;;;;;;5044207;28;20476;-59
2023/04/22 11:33:31;;;;;;;5.93;3.33;;;23.20;64.70;;;;;;5043526;28;20127;-59
2023/04/22 11:35:57;;;;;;;3.50;3.20;;;23.70;58.70;;;;;;5044172;28;20123;-60
2023/04/22 11:38:23;;;;;;;8.68;3.15;;;24.50;58.10;;;;;;5043871;28;20103;-59
2023/04/22 11:40:48;;;;;;;9.75;4.13;;;25.30;61.00;;;;;;5044392;28;20500;-60
2023/04/22 11:43:14;;;;;;;6.25;2.83;;;24.90;56.30;;;;;;5043547;28;20206;-59
2023/04/22 11:45:41;;;;;;;3.35;2.33;;;24.70;54.40;;;;;;5044036;28;20051;-60
2023/04/22 11:48:08;;;;;;;3.10;2.80;;;24.90;51.10;;;;;;5079029;28;20032;-59
2023/04/22 11:50:36;;;;;;;4.18;2.92;;;25.00;53.00;;;;;;5076828;28;20013;-60
2023/04/22 11:53:04;;;;;;;3.60;2.53;;;25.10;53.70;;;;;;5090886;28;20017;-60
2023/04/22 11:55:31;;;;;;;5.45;3.03;;;25.60;53.30;;;;;;5082068;28;20031;-59
2023/04/22 11:58:06;;;;;;;2.83;2.45;;;25.50;52.40;;;;;;5082918;28;20020;-60
2023/04/22 12:00:56;;;;;;;2.83;2.53;;;25.30;49.90;;;;;;5089222;28;20032;-60
2023/04/22 12:03:27;;;;;;;5.30;2.40;;;25.50;53.60;;;;;;5084560;28;20043;-61
2023/04/22 12:06:03;;;;;;;3.28;2.65;;;26.20;53.70;;;;;;5094525;28;20047;-61
2023/04/22 12:08:35;;;;;;;3.85;2.17;;;26.90;51.40;;;;;;5085271;28;20043;-61
2023/04/22 12:11:03;;;;;;;3.30;1.75;;;27.80;49.80;;;;;;5073529;28;20115;-61
2023/04/22 12:13:32;;;;;;;4.85;2.53;;;27.90;48.60;;;;;;5073631;28;20029;-61
2023/04/22 12:16:03;;;;;;;6.85;2.30;;;28.20;47.00;;;;;;5073979;28;20027;-61
2023/04/22 12:18:32;;;;;;;7.05;2.55;;;27.80;44.50;;;;;;5079703;28;20077;-61
2023/04/22 12:21:12;;;;;;;3.22;1.88;;;27.80;45.70;;;;;;5063588;28;20031;-61
2023/04/22 12:23:47;;;;;;;5.60;2.55;;;27.80;45.20;;;;;;5073540;28;20051;-60
2023/04/22 12:26:50;;;;;;;10.90;2.60;;;28.10;45.70;;;;;;5073458;28;20028;-61
2023/04/22 12:29:16;;;;;;;3.13;2.22;;;28.10;45.20;;;;;;5073538;28;20020;-62
2023/04/22 12:31:41;;;;;;;7.60;2.50;;;29.00;46.00;;;;;;5084790;28;20047;-61
2023/04/22 12:34:07;;;;;;;6.03;2.15;;;29.40;45.30;;;;;;5073340;28;20032;-62
2023/04/22 12:36:34;;;;;;;4.18;1.83;;;29.90;44.60;;;;;;5073723;28;20020;-63
2023/04/22 12:39:00;;;;;;;3.03;2.47;;;30.00;43.00;;;;;;5074439;28;20052;-62
2023/04/22 12:41:25;;;;;;;2.95;1.70;;;29.90;40.60;;;;;;5073167;28;20448;-61
2023/04/22 12:43:51;;;;;;;3.67;1.80;;;29.90;39.80;;;;;;5072776;28;20025;-62